Time;durP1;ratioP1;P1;durP2;ratioP2;P2;SDS_P1;SDS_P2;PMS_P1;PMS_P2;Temp;Humidity;BMP_temperature;BMP_pressure;BME280_temperature;BME280_humidity;BME280_pressure;Samples;Min_cycle;Max_cycle;Signal;HPM_P1;HPM_P2
2022/09/09 00:02:26;;;;;;;2.65;2.33;;;;;;;15.70;83.17;100534.13;3590695;39;20048;-62
2022/09/09 00:05:26;;;;;;;3.15;2.20;;;;;;;15.69;83.51;100539.66;3591190;39;20107;-62
2022/09/09 00:07:58;;;;;;;3.65;1.80;;;;;;;15.68;83.93;100527.13;3587167;39;20044;-62
2022/09/09 00:10:39;;;;;;;2.63;1.80;;;;;;;15.65;82.95;100521.94;3590298;39;20651;-63
2022/09/09 00:13:36;;;;;;;2.15;1.58;;;;;;;15.61;83.31;100525.91;3591869;39;20090;-63
2022/09/09 00:16:24;;;;;;;1.40;1.23;;;;;;;15.61;83.62;100528.63;3591510;39;20062;-64
2022/09/09 00:19:15;;;;;;;2.03;1.42;;;;;;;15.60;83.34;100518.75;3591444;39;20071;-62
2022/09/09 00:21:57;;;;;;;1.55;1.45;;;;;;;15.59;83.19;100526.03;3591161;39;20298;-63
2022/09/09 00:24:45;;;;;;;3.78;1.60;;;;;;;15.56;82.78;100518.16;3578356;40;20044;-63
2022/09/09 00:27:29;;;;;;;2.63;1.70;;;;;;;15.58;82.79;100520.75;3582231;39;20146;-64
2022/09/09 00:30:20;;;;;;;2.38;1.75;;;;;;;15.60;83.19;100524.16;3590689;39;20048;-63
2022/09/09 00:32:48;;;;;;;3.25;1.45;;;;;;;15.62;82.94;100517.63;3591586;39;20064;-63
2022/09/09 00:35:44;;;;;;;4.05;1.60;;;;;;;15.62;83.38;100516.78;3590499;39;20064;-63
2022/09/09 00:38:24;;;;;;;3.53;1.67;;;;;;;15.62;82.91;100519.50;3592591;39;20132;-63
2022/09/09 00:41:39;;;;;;;1.98;1.42;;;;;;;15.61;82.99;100515.06;3590284;39;20044;-62
2022/09/09 00:44:36;;;;;;;1.67;1.48;;;;;;;15.56;83.03;100508.19;3589257;39;20135;-63
2022/09/09 00:47:42;;;;;;;3.38;1.27;;;;;;;15.58;83.14;100499.09;3590391;39;20078;-63
2022/09/09 00:50:35;;;;;;;3.75;1.50;;;;;;;15.56;83.32;100499.22;3591406;39;20063;-62
2022/09/09 00:53:39;;;;;;;4.25;1.73;;;;;;;15.53;82.25;100503.03;3589774;39;20079;-63
2022/09/09 00:56:25;;;;;;;1.70;1.20;;;;;;;15.52;82.79;100498.63;3590929;39;20068;-63
2022/09/09 00:59:31;;;;;;;2.22;1.25;;;;;;;15.50;83.35;100503.31;3589058;39;20067;-64
2022/09/09 01:01:58;;;;;;;3.10;1.45;;;;;;;15.51;83.67;100496.06;3586778;39;20326;-61
2022/09/09 01:04:36;;;;;;;3.97;1.52;;;;;;;15.23;83.17;100451.56;3589389;39;20047;-62
2022/09/09 01:07:18;;;;;;;1.50;1.15;;;;;;;15.44;83.02;100482.16;3591842;39;20068;-63
2022/09/09 01:10:00;;;;;;;2.80;1.55;;;;;;;15.32;82.77;100472.44;3589084;39;20048;-63
2022/09/09 01:12:42;;;;;;;7.55;1.73;;;;;;;15.49;82.69;100496.19;3587935;39;20341;-62
2022/09/09 01:15:33;;;;;;;1.50;1.40;;;;;;;15.45;82.74;100496.59;3587673;39;20063;-62
2022/09/09 01:18:13;;;;;;;1.45;1.35;;;;;;;15.44;83.30;100495.72;3590421;39;20136;-62
2022/09/09 01:21:31;;;;;;;3.53;1.60;;;;;;;15.44;83.53;100492.16;3588685;39;20058;-63
2022/09/09 01:24:19;;;;;;;7.55;2.03;;;;;;;15.42;84.10;100484.19;3592824;39;20052;-62
2022/09/09 01:26:50;;;;;;;1.95;1.55;;;;;;;14.82;83.63;100389.22;3590267;39;20398;-61
2022/09/09 01:29:20;;;;;;;3.75;1.50;;;;;;;15.42;83.61;100488.75;3591596;39;20048;-62
2022/09/09 01:32:01;;;;;;;2.22;1.70;;;;;;;15.37;84.18;100480.16;3590095;39;20051;-62
2022/09/09 01:34:40;;;;;;;4.20;1.88;;;;;;;15.41;84.27;100485.16;3590296;39;20091;-62
2022/09/09 01:37:10;;;;;;;6.75;2.05;;;;;;;15.42;84.54;100481.47;3589544;39;20125;-63
2022/09/09 01:39:40;;;;;;;2.22;1.95;;;;;;;15.44;84.00;100474.03;3592470;39;20312;-63
2022/09/09 01:42:11;;;;;;;2.35;2.13;;;;;;;15.46;84.04;100479.34;3590636;39;20044;-62
2022/09/09 01:44:38;;;;;;;3.42;2.10;;;;;;;15.33;83.38;100444.34;3587106;39;20056;-62
2022/09/09 01:47:05;;;;;;;3.22;1.88;;;;;;;15.41;83.63;100471.59;3589899;39;20680;-62
2022/09/09 01:49:32;;;;;;;4.10;2.30;;;;;;;15.39;83.58;100468.19;3590987;39;20487;-62
2022/09/09 01:51:59;;;;;;;4.35;1.77;;;;;;;15.36;83.74;100467.59;3590805;39;20379;-62
2022/09/09 01:54:31;;;;;;;3.38;1.80;;;;;;;15.38;84.01;100469.19;3593193;39;20044;-63
2022/09/09 01:57:28;;;;;;;3.45;1.92;;;;;;;15.33;84.05;100468.72;3590068;39;20095;-62
2022/09/09 02:00:06;;;;;;;2.45;2.15;;;;;;;15.34;83.83;100459.59;3587005;39;20048;-62
2022/09/09 02:03:10;;;;;;;5.97;2.30;;;;;;;15.30;83.56;100458.16;3590558;39;20048;-63
2022/09/09 02:05:41;;;;;;;3.45;2.28;;;;;;;15.28;83.99;100454.72;3586264;39;20060;-63
2022/09/09 02:08:31;;;;;;;3.80;2.47;;;;;;;15.13;84.04;100424.44;3587806;39;20121;-63
2022/09/09 02:11:22;;;;;;;3.70;2.10;;;;;;;15.25;83.91;100454.97;3588063;39;20103;-63
2022/09/09 02:13:56;;;;;;;5.18;2.30;;;;;;;15.14;84.27;100425.31;3589200;39;20060;-62
2022/09/09 02:16:42;;;;;;;4.55;2.55;;;;;;;15.24;84.29;100447.88;3589629;39;20059;-63
2022/09/09 02:19:25;;;;;;;2.58;2.28;;;;;;;15.25;84.59;100458.53;3588805;39;21336;-63
2022/09/09 02:21:55;;;;;;;4.57;2.78;;;;;;;15.27;84.42;100459.28;3588456;39;20056;-62
2022/09/09 02:24:22;;;;;;;4.05;2.40;;;;;;;15.25;84.22;100461.25;3585061;39;20379;-63
2022/09/09 02:26:55;;;;;;;7.00;2.80;;;;;;;15.27;84.29;100463.84;3588004;39;20052;-62
2022/09/09 02:29:35;;;;;;;7.55;2.60;;;;;;;15.23;84.61;100448.88;3589031;39;20058;-62
2022/09/09 02:32:13;;;;;;;5.82;2.80;;;;;;;15.25;84.14;100449.56;3588063;39;20232;-63
2022/09/09 02:34:51;;;;;;;6.35;2.65;;;;;;;15.24;84.81;100448.72;3586231;39;20115;-63
2022/09/09 02:37:21;;;;;;;4.75;2.80;;;;;;;15.23;84.71;100443.44;3587113;39;20048;-63
2022/09/09 02:39:47;;;;;;;5.18;2.58;;;;;;;15.24;84.52;100447.88;3588265;39;20088;-62
2022/09/09 02:42:14;;;;;;;6.18;2.55;;;;;;;15.23;84.68;100438.03;3586994;39;20047;-63
2022/09/09 02:44:41;;;;;;;4.13;2.28;;;;;;;15.25;84.42;100430.63;3589636;39;20048;-63
2022/09/09 02:47:52;;;;;;;4.38;2.25;;;;;;;15.24;84.58;100439.75;3591527;39;20072;-61
2022/09/09 02:50:33;;;;;;;4.63;2.35;;;;;;;15.24;84.67;100443.31;3586177;39;20067;-62
2022/09/09 02:53:29;;;;;;;3.90;2.45;;;;;;;15.23;84.78;100441.59;3587348;39;20070;-63
2022/09/09 02:56:03;;;;;;;4.95;2.45;;;;;;;15.24;84.51;100446.00;3590577;39;20047;-62
2022/09/09 02:58:30;;;;;;;6.03;2.80;;;;;;;15.26;84.98;100448.59;3590566;39;20065;-63
2022/09/09 03:00:57;;;;;;;7.60;2.47;;;;;;;15.28;84.87;100455.56;3588302;39;20059;-63
2022/09/09 03:03:24;;;;;;;6.47;2.17;;;;;;;15.30;84.05;100450.88;3592176;39;20055;-62
2022/09/09 03:05:49;;;;;;;3.60;2.35;;;;;;;15.29;84.35;100446.47;3589258;39;20375;-62
2022/09/09 03:08:17;;;;;;;6.07;2.50;;;;;;;15.30;84.49;100463.56;3586851;39;20055;-63
2022/09/09 03:10:42;;;;;;;3.88;2.50;;;;;;;15.31;84.41;100447.19;3587753;39;20063;-62
2022/09/09 03:13:08;;;;;;;3.35;2.08;;;;;;;15.30;84.17;100450.88;3593492;39;20460;-64
2022/09/09 03:15:35;;;;;;;4.57;2.15;;;;;;;15.33;84.64;100457.91;3588273;39;20444;-63
2022/09/09 03:18:01;;;;;;;5.45;2.10;;;;;;;15.34;84.08;100454.19;3590127;39;20051;-63
2022/09/09 03:20:29;;;;;;;10.23;2.40;;;;;;;15.32;84.35;100459.75;3586182;39;20058;-63
2022/09/09 03:22:57;;;;;;;5.22;2.00;;;;;;;15.20;84.39;100435.59;3589114;39;20060;-62
2022/09/09 03:25:24;;;;;;;5.93;2.33;;;;;;;15.31;84.32;100468.84;3589154;39;20052;-63
2022/09/09 03:27:54;;;;;;;8.77;2.05;;;;;;;15.32;84.44;100467.03;3586585;39;20052;-62
2022/09/09 03:30:22;;;;;;;4.60;2.03;;;;;;;15.33;84.88;100457.91;3588897;39;20067;-62
2022/09/09 03:32:47;;;;;;;3.42;1.90;;;;;;;15.39;84.04;100470.91;3587504;39;20044;-62
2022/09/09 03:35:14;;;;;;;5.85;1.77;;;;;;;15.40;84.95;100463.63;3587043;39;20302;-62
2022/09/09 03:37:39;;;;;;;7.72;2.10;;;;;;;15.41;84.21;100459.91;3588956;39;20055;-62
2022/09/09 03:40:06;;;;;;;4.90;2.05;;;;;;;15.41;84.58;100455.34;3589063;39;20056;-63
2022/09/09 03:42:31;;;;;;;6.97;2.65;;;;;;;15.40;84.38;100461.78;3587945;39;20284;-63
2022/09/09 03:44:57;;;;;;;4.22;2.08;;;;;;;15.42;84.25;100458.94;3588026;39;20050;-63
2022/09/09 03:47:23;;;;;;;3.15;1.90;;;;;;;15.42;84.71;100454.38;3589972;39;20070;-63
2022/09/09 03:49:49;;;;;;;6.68;2.25;;;;;;;15.41;84.70;100454.50;3588962;39;20100;-63
2022/09/09 03:52:15;;;;;;;7.28;2.40;;;;;;;15.42;84.79;100456.22;3587994;39;20108;-63
2022/09/09 03:54:42;;;;;;;5.40;2.13;;;;;;;15.43;84.13;100457.94;3588760;39;20059;-64
2022/09/09 03:57:10;;;;;;;4.70;2.20;;;;;;;15.42;84.88;100457.09;3589743;39;20087;-61
2022/09/09 03:59:36;;;;;;;2.70;2.00;;;;;;;15.41;85.00;100457.19;3588982;39;20416;-62
2022/09/09 04:02:02;;;;;;;6.50;2.63;;;;;;;15.43;85.19;100457.94;3588675;39;20394;-62
2022/09/09 04:04:28;;;;;;;7.78;2.33;;;;;;;15.45;84.88;100453.25;3591024;39;20077;-62
2022/09/09 04:06:54;;;;;;;5.75;2.20;;;;;;;15.47;85.21;100453.97;3590889;39;20399;-62
2022/09/09 04:09:19;;;;;;;5.53;2.30;;;;;;;15.47;84.77;100449.38;3589124;39;20052;-63
2022/09/09 04:11:45;;;;;;;6.10;2.30;;;;;;;15.48;84.59;100445.72;3589528;39;20389;-62
2022/09/09 04:14:12;;;;;;;9.82;2.40;;;;;;;15.48;84.66;100444.84;3587538;39;20130;-63
2022/09/09 04:16:39;;;;;;;4.95;2.13;;;;;;;15.46;85.25;100455.81;3588187;39;20379;-62
2022/09/09 04:19:07;;;;;;;4.90;2.10;;;;;;;15.46;85.15;100457.66;3592410;39;20055;-62
2022/09/09 04:21:33;;;;;;;3.60;2.10;;;;;;;15.47;85.20;100443.97;3590066;39;20071;-63
2022/09/09 04:23:58;;;;;;;8.18;2.40;;;;;;;15.49;85.86;100443.84;3591616;39;20062;-62
2022/09/09 04:26:24;;;;;;;6.97;3.15;;;;;;;15.51;85.18;100440.03;3588703;39;20375;-62
2022/09/09 04:28:50;;;;;;;11.45;6.20;;;;;;;15.55;85.47;100438.75;3591115;39;20059;-63
2022/09/09 04:31:25;;;;;;;7.38;3.30;;;;;;;15.55;85.82;100433.34;3589896;39;20055;-62
2022/09/09 04:33:52;;;;;;;8.32;2.65;;;;;;;15.58;85.32;100440.34;3589564;39;20073;-63
2022/09/09 04:36:19;;;;;;;9.68;2.63;;;;;;;15.59;85.30;100435.75;3586996;39;20310;-62
2022/09/09 04:38:45;;;;;;;4.47;2.20;;;;;;;15.58;85.13;100434.91;3588581;39;20055;-62
2022/09/09 04:41:12;;;;;;;9.40;2.67;;;;;;;15.58;84.99;100431.34;3587766;39;20284;-63
2022/09/09 04:43:39;;;;;;;7.45;2.33;;;;;;;15.47;85.48;100418.75;3591102;39;20052;-63
2022/09/09 04:46:05;;;;;;;7.60;2.67;;;;;;;15.61;85.22;100433.78;3592350;39;20039;-61
2022/09/09 04:48:31;;;;;;;5.68;2.33;;;;;;;15.61;85.15;100433.78;3591726;39;20067;-62
2022/09/09 04:51:04;;;;;;;5.47;2.45;;;;;;;15.48;85.32;100407.78;3596726;39;20298;-63
2022/09/09 04:53:30;;;;;;;9.52;2.17;;;;;;;15.60;85.18;100427.47;3590772;39;20056;-63
2022/09/09 04:56:13;;;;;;;4.32;2.47;;;;;;;15.59;85.12;100420.38;3594646;39;20064;-62
2022/09/09 04:58:43;;;;;;;7.18;2.45;;;;;;;15.60;85.70;100426.63;3590766;39;20063;-62
2022/09/09 05:01:19;;;;;;;4.35;2.50;;;;;;;15.63;85.20;100415.53;3592055;39;20047;-62
2022/09/09 05:03:46;;;;;;;5.43;2.45;;;;;;;15.45;85.39;100399.09;3593176;39;20375;-62
2022/09/09 05:06:18;;;;;;;7.97;2.80;;;;;;;15.63;85.16;100423.66;3590903;39;20047;-63
2022/09/09 05:08:45;;;;;;;7.85;2.20;;;;;;;15.62;85.74;100424.66;3590797;39;20048;-62
2022/09/09 05:11:26;;;;;;;9.90;2.53;;;;;;;15.66;85.63;100420.66;3593142;39;20059;-65
2022/09/09 05:13:54;;;;;;;5.72;2.70;;;;;;;15.65;84.75;100425.22;3590767;39;20052;-63
2022/09/09 05:16:21;;;;;;;6.35;2.33;;;;;;;15.66;85.07;100426.09;3588595;39;20044;-62
2022/09/09 05:18:47;;;;;;;8.88;2.50;;;;;;;15.68;85.21;100427.69;3591255;39;20133;-61
2022/09/09 05:21:15;;;;;;;5.00;2.17;;;;;;;15.66;85.00;100431.50;3588706;39;20048;-61
2022/09/09 05:23:41;;;;;;;4.93;2.35;;;;;;;15.68;84.72;100424.13;3586486;39;20428;-62
2022/09/09 05:26:13;;;;;;;10.82;2.65;;;;;;;15.68;85.12;100425.00;3591701;39;20051;-62
2022/09/09 05:28:39;;;;;;;6.28;2.10;;;;;;;15.72;85.36;100420.16;3588775;39;20064;-61
2022/09/09 05:31:08;;;;;;;7.15;2.30;;;;;;;15.70;84.82;100419.44;3588427;39;20063;-62
2022/09/09 05:33:35;;;;;;;10.40;2.75;;;;;;;15.72;84.94;100431.00;3591096;39;20284;-62
2022/09/09 05:36:06;;;;;;;8.52;2.33;;;;;;;15.74;84.30;100412.75;3589347;39;20050;-62
2022/09/09 05:38:32;;;;;;;7.40;2.22;;;;;;;15.77;84.68;100416.03;3584246;39;20083;-62
2022/09/09 05:40:59;;;;;;;8.30;2.38;;;;;;;15.75;84.25;100415.31;3586887;39;20267;-62
2022/09/09 05:43:27;;;;;;;8.13;2.30;;;;;;;15.64;84.44;100406.41;3587444;39;20044;-62
2022/09/09 05:46:10;;;;;;;8.40;2.30;;;;;;;15.73;84.45;100422.75;3590363;39;20060;-62
2022/09/09 05:48:42;;;;;;;;;;;;;;;15.79;84.44;100426.72;3588975;39;20120;-63
2022/09/09 05:51:17;;;;;;;7.85;2.03;;;;;;;15.82;84.71;100437.28;3588966;39;19940;-62
2022/09/09 05:53:45;;;;;;;6.50;2.63;;;;;;;15.85;83.99;100442.44;3586980;39;20121;-63
2022/09/09 05:56:21;;;;;;;8.07;2.05;;;;;;;15.84;84.09;100429.88;3586976;39;20095;-63
2022/09/09 05:58:48;;;;;;;6.90;2.47;;;;;;;15.89;84.53;100437.59;3583457;39;20350;-63
2022/09/09 06:01:27;;;;;;;5.25;2.08;;;;;;;15.83;84.19;100428.19;3588037;39;20068;-64
2022/09/09 06:03:53;;;;;;;5.10;1.98;;;;;;;15.97;84.51;100440.47;3584059;39;20056;-63
2022/09/09 06:06:26;;;;;;;5.82;2.20;;;;;;;16.00;84.61;100446.47;3586137;39;20067;-63
2022/09/09 06:08:57;;;;;;;8.43;2.30;;;;;;;16.02;84.22;100432.78;3588065;39;20608;-63
2022/09/09 06:11:30;;;;;;;5.70;2.25;;;;;;;16.12;84.30;100441.81;3585251;39;20415;-62
2022/09/09 06:13:57;;;;;;;7.03;2.30;;;;;;;16.18;83.42;100437.69;3586259;39;20045;-64
2022/09/09 06:16:26;;;;;;;4.45;2.05;;;;;;;16.25;83.60;100438.81;3585999;39;20132;-62
2022/09/09 06:18:57;;;;;;;8.57;2.08;;;;;;;16.31;83.28;100426.56;3587150;39;20116;-63
2022/09/09 06:21:33;;;;;;;5.53;2.30;;;;;;;16.38;83.29;100442.09;3587107;39;20067;-62
2022/09/09 06:24:00;;;;;;;8.88;2.30;;;;;;;16.28;82.44;100413.28;3589394;39;20301;-63
2022/09/09 06:26:30;;;;;;;8.20;2.50;;;;;;;16.45;81.96;100424.25;3586952;39;20377;-63
2022/09/09 06:28:57;;;;;;;9.25;2.90;;;;;;;16.43;81.85;100439.84;3588133;39;20054;-63
2022/09/09 06:31:30;;;;;;;9.70;2.80;;;;;;;16.46;81.81;100431.41;3588283;39;20068;-64
2022/09/09 06:33:57;;;;;;;8.57;2.33;;;;;;;16.50;81.57;100431.97;3588420;39;20087;-63
2022/09/09 06:36:33;;;;;;;8.38;2.15;;;;;;;16.51;81.09;100441.81;3587344;39;20051;-63
2022/09/09 06:38:59;;;;;;;5.43;1.80;;;;;;;16.52;81.63;100429.13;3587259;39;20305;-63
2022/09/09 06:41:29;;;;;;;7.53;2.38;;;;;;;16.51;81.34;100432.84;3587509;39;20064;-63
2022/09/09 06:43:57;;;;;;;9.05;2.35;;;;;;;16.47;81.05;100433.13;3588169;39;20120;-64
2022/09/09 06:46:32;;;;;;;10.38;2.45;;;;;;;16.52;80.51;100423.69;3584103;39;20051;-63
2022/09/09 06:48:59;;;;;;;12.35;2.72;;;;;;;16.54;80.55;100424.41;3586509;39;20056;-62
2022/09/09 06:51:34;;;;;;;9.68;2.45;;;;;;;16.42;80.69;100416.41;3575065;39;20413;-63
2022/09/09 06:54:03;;;;;;;7.07;2.38;;;;;;;16.56;80.53;100425.13;3586688;39;20062;-63
2022/09/09 06:56:33;;;;;;;6.53;2.10;;;;;;;16.60;80.52;100430.13;3588365;39;20397;-63
2022/09/09 06:59:04;;;;;;;9.27;2.20;;;;;;;16.66;80.98;100426.84;3588720;39;20063;-63
2022/09/09 07:01:35;;;;;;;7.53;2.45;;;;;;;16.75;80.68;100427.88;3587326;39;20068;-63
2022/09/09 07:04:04;;;;;;;11.02;2.53;;;;;;;16.85;80.42;100426.00;3588657;39;20658;-63
2022/09/09 07:06:35;;;;;;;6.28;2.05;;;;;;;17.00;79.98;100433.66;3589700;39;20182;-63
2022/09/09 07:09:05;;;;;;;9.20;2.08;;;;;;;17.02;79.36;100409.94;3589326;39;20347;-63
2022/09/09 07:11:38;;;;;;;8.43;2.33;;;;;;;17.28;77.53;100430.00;3585020;39;20067;-63
2022/09/09 07:14:03;;;;;;;8.90;2.30;;;;;;;17.27;77.28;100424.75;3587703;39;20051;-64
2022/09/09 07:16:31;;;;;;;9.07;2.72;;;;;;;17.44;76.09;100442.97;3587160;39;20086;-63
2022/09/09 07:19:00;;;;;;;8.90;2.20;;;;;;;17.52;76.01;100429.50;3585611;39;20087;-63
2022/09/09 07:21:28;;;;;;;7.53;1.92;;;;;;;17.54;75.23;100434.81;3589662;39;20768;-63
2022/09/09 07:23:55;;;;;;;11.85;2.25;;;;;;;17.62;75.46;100432.19;3588546;39;20056;-64
2022/09/09 07:26:25;;;;;;;10.35;2.25;;;;;;;17.66;75.74;100425.44;3586909;39;20062;-63
2022/09/09 07:28:51;;;;;;;8.35;2.15;;;;;;;17.73;75.30;100420.25;3587312;39;20060;-65
2022/09/09 07:31:27;;;;;;;7.78;2.05;;;;;;;17.72;74.80;100422.09;3586457;39;20063;-64
2022/09/09 07:33:53;;;;;;;6.93;2.13;;;;;;;17.69;74.89;100432.44;3587166;39;20058;-63
2022/09/09 07:36:32;;;;;;;6.85;2.30;;;;;;;17.78;73.96;100424.25;3587034;39;20064;-63
2022/09/09 07:39:03;;;;;;;8.93;1.90;;;;;;;17.78;74.57;100432.41;3588645;39;20067;-63
2022/09/09 07:41:35;;;;;;;11.43;2.60;;;;;;;17.85;73.98;100441.66;3590476;39;20071;-63
2022/09/09 07:44:14;;;;;;;7.15;2.25;;;;;;;17.84;73.99;100428.25;3585618;39;20115;-63
2022/09/09 07:46:41;;;;;;;8.88;2.53;;;;;;;17.91;74.01;100439.38;3588500;39;20059;-64
2022/09/09 07:49:08;;;;;;;5.63;1.95;;;;;;;17.98;74.49;100429.59;3586583;39;20074;-64
2022/09/09 07:51:40;;;;;;;6.75;1.92;;;;;;;18.01;72.71;100430.13;3579411;39;20071;-63
2022/09/09 07:54:10;;;;;;;9.55;2.08;;;;;;;17.86;74.19;100389.03;3585655;39;20058;-63
2022/09/09 07:56:39;;;;;;;10.25;2.33;;;;;;;18.24;74.35;100432.44;3591739;39;20063;-64
2022/09/09 07:59:06;;;;;;;8.98;2.10;;;;;;;18.36;72.58;100433.06;3587094;39;20056;-64
2022/09/09 08:01:39;;;;;;;8.20;1.80;;;;;;;18.47;72.43;100430.13;3588475;39;20052;-65
2022/09/09 08:04:09;;;;;;;8.70;2.03;;;;;;;18.59;72.01;100434.31;3588390;39;20143;-64
2022/09/09 08:06:41;;;;;;;8.40;2.10;;;;;;;18.65;70.84;100432.81;3591782;39;20615;-65
2022/09/09 08:09:09;;;;;;;5.00;1.80;;;;;;;18.63;69.93;100430.25;3586619;39;20047;-65
2022/09/09 08:11:36;;;;;;;7.25;2.20;;;;;;;18.61;70.92;100428.69;3590145;39;20052;-65
2022/09/09 08:14:03;;;;;;;8.27;2.08;;;;;;;18.69;71.00;100435.06;3593433;39;20055;-64
2022/09/09 08:16:36;;;;;;;7.63;2.00;;;;;;;18.73;69.83;100436.50;3584344;39;20067;-65
2022/09/09 08:19:03;;;;;;;8.40;2.15;;;;;;;18.73;70.31;100433.78;3591974;39;20128;-65
2022/09/09 08:21:31;;;;;;;8.13;2.20;;;;;;;18.88;69.43;100427.78;3588820;39;20060;-65
2022/09/09 08:23:59;;;;;;;8.68;1.80;;;;;;;18.90;70.23;100436.63;3590146;39;20058;-64
2022/09/09 08:26:29;;;;;;;7.53;2.15;;;;;;;18.86;68.35;100435.25;3590535;39;20838;-65
2022/09/09 08:29:00;;;;;;;5.82;1.80;;;;;;;18.86;67.95;100432.50;3593865;39;20048;-64
2022/09/09 08:31:30;;;;;;;6.50;1.60;;;;;;;18.86;67.80;100427.06;3590808;39;20737;-63
2022/09/09 08:34:03;;;;;;;10.45;2.00;;;;;;;18.93;68.47;100437.16;3590010;39;20297;-65
2022/09/09 08:36:35;;;;;;;8.20;1.88;;;;;;;18.86;67.99;100441.53;3592349;39;21258;-65
2022/09/09 08:39:02;;;;;;;9.65;1.80;;;;;;;18.77;67.98;100443.34;3591329;39;20104;-64
2022/09/09 08:42:02;;;;;;;8.38;1.88;;;;;;;18.76;67.37;100444.34;3589947;39;20210;-64
2022/09/09 08:44:55;;;;;;;7.45;2.20;;;;;;;18.62;67.88;100442.16;3590516;39;20105;-64
2022/09/09 08:48:16;;;;;;;5.55;1.80;;;;;;;18.62;67.55;100450.34;3578447;39;20055;-65
2022/09/09 08:50:46;;;;;;;5.35;1.98;;;;;;;18.66;68.04;100456.31;3587438;39;20157;-65
2022/09/09 08:53:24;;;;;;;6.50;2.10;;;;;;;18.71;68.43;100448.53;3589037;39;20298;-65
2022/09/09 08:55:59;;;;;;;7.88;1.77;;;;;;;18.71;68.22;100437.63;3590418;39;20050;-65
2022/09/09 08:58:31;;;;;;;8.02;2.05;;;;;;;18.78;67.47;100453.22;3591010;39;20070;-65
2022/09/09 09:01:09;;;;;;;8.45;2.05;;;;;;;18.79;67.55;100457.66;3590276;39;20048;-65
2022/09/09 09:04:21;;;;;;;8.82;2.30;;;;;;;18.85;68.13;100461.63;3585303;39;20059;-66
2022/09/09 09:07:22;;;;;;;8.50;2.10;;;;;;;18.88;66.73;100465.91;3589619;39;20413;-65
2022/09/09 09:10:20;;;;;;;9.52;2.17;;;;;;;18.90;67.40;100463.84;3589058;39;20056;-66
2022/09/09 09:12:48;;;;;;;7.50;1.73;;;;;;;18.98;67.16;100466.66;3588991;39;20052;-63
2022/09/09 09:15:26;;;;;;;4.75;1.60;;;;;;;19.02;66.58;100468.06;3587493;39;20088;-64
2022/09/09 09:17:52;;;;;;;6.60;2.00;;;;;;;19.02;66.09;100476.22;3592567;39;20439;-65
2022/09/09 09:20:47;;;;;;;7.97;2.10;;;;;;;18.95;66.62;100476.00;3586556;39;20055;-64
2022/09/09 09:23:24;;;;;;;9.70;2.08;;;;;;;18.92;67.66;100480.91;3586751;39;20310;-64
2022/09/09 09:25:59;;;;;;;9.15;4.28;;;;;;;18.26;68.05;100367.81;3591848;39;20307;-65
2022/09/09 09:28:31;;;;;;;8.55;2.15;;;;;;;18.87;67.70;100486.84;3591401;39;20070;-65
2022/09/09 09:31:06;;;;;;;7.47;2.15;;;;;;;18.82;68.18;100475.56;3582552;39;20052;-65
2022/09/09 09:33:41;;;;;;;9.07;2.00;;;;;;;18.85;68.23;100480.69;3590261;39;20386;-65
2022/09/09 09:36:08;;;;;;;14.05;2.33;;;;;;;18.77;68.32;100469.72;3589882;39;20051;-64
2022/09/09 09:38:36;;;;;;;7.75;2.80;;;;;;;18.78;68.29;100469.56;3590031;39;20082;-64
2022/09/09 09:41:03;;;;;;;5.03;1.83;;;;;;;18.91;68.70;100474.63;3593543;39;20054;-65
2022/09/09 09:43:35;;;;;;;9.93;3.15;;;;;;;18.94;68.36;100473.44;3586121;39;21199;-65
2022/09/09 09:46:04;;;;;;;10.32;2.47;;;;;;;18.97;68.94;100462.25;3588997;39;20047;-65
2022/09/09 09:48:32;;;;;;;8.60;2.08;;;;;;;19.01;68.42;100463.63;3587367;39;20055;-65
2022/09/09 09:51:07;;;;;;;10.68;2.45;;;;;;;19.01;67.65;100472.66;3586641;39;20045;-66
2022/09/09 09:53:38;;;;;;;5.95;1.80;;;;;;;18.99;67.04;100463.78;3586837;39;20055;-66
2022/09/09 09:56:14;;;;;;;7.82;2.33;;;;;;;18.88;66.97;100460.47;3589617;39;20458;-65
2022/09/09 09:58:45;;;;;;;8.30;2.10;;;;;;;18.93;67.50;100477.16;3588982;39;20091;-64
2022/09/09 10:01:29;;;;;;;8.38;2.15;;;;;;;18.84;68.91;100476.25;3581964;40;20048;-62
2022/09/09 10:04:01;;;;;;;8.35;2.10;;;;;;;18.73;70.49;100473.78;3591159;39;20567;-63
2022/09/09 10:06:39;;;;;;;9.77;2.08;;;;;;;18.68;71.47;100466.06;3585740;39;20052;-62
2022/09/09 10:09:33;;;;;;;7.63;1.95;;;;;;;18.64;70.75;100474.66;3589876;39;20047;-63
2022/09/09 10:12:24;;;;;;;7.68;1.98;;;;;;;18.58;71.35;100465.25;3592387;39;20060;-62
2022/09/09 10:15:23;;;;;;;6.18;2.00;;;;;;;18.51;71.63;100475.06;3584796;39;20060;-62
2022/09/09 10:18:46;;;;;;;8.27;2.13;;;;;;;18.52;73.28;100471.31;3588787;39;20052;-63
2022/09/09 10:21:46;;;;;;;8.98;3.03;;;;;;;18.49;73.21;100482.50;3587086;39;20052;-63
2022/09/09 10:24:27;;;;;;;8.65;2.15;;;;;;;18.48;73.47;100488.97;3587841;39;20051;-63
2022/09/09 10:27:09;;;;;;;7.32;2.67;;;;;;;18.43;73.49;100488.59;3590870;39;20055;-63
2022/09/09 10:30:02;;;;;;;7.93;2.63;;;;;;;18.37;74.38;100490.06;3587223;39;20059;-64
2022/09/09 10:33:15;;;;;;;10.07;2.22;;;;;;;18.28;73.45;100486.38;3586354;39;20443;-65
2022/09/09 10:36:13;;;;;;;5.97;1.80;;;;;;;18.19;74.66;100492.75;3587909;39;20066;-64
2022/09/09 10:38:46;;;;;;;5.90;2.10;;;;;;;18.07;74.16;100483.94;3583030;39;20082;-64
2022/09/09 10:41:51;;;;;;;7.63;2.58;;;;;;;18.12;74.96;100488.94;3588186;39;20059;-65
2022/09/09 10:45:13;;;;;;;9.38;2.67;;;;;;;18.08;74.77;100485.66;3591082;39;20039;-66
2022/09/09 10:47:59;;;;;;;6.78;2.20;;;;;;;18.09;75.05;100492.81;3587593;39;20113;-65
2022/09/09 10:50:35;;;;;;;6.45;2.15;;;;;;;18.16;75.57;100482.16;3588586;39;20636;-65
2022/09/09 10:53:47;;;;;;;4.10;1.55;;;;;;;18.27;75.59;100489.28;3594483;39;20313;-65
2022/09/09 10:56:18;;;;;;;3.90;2.17;;;;;;;18.37;75.30;100483.78;3588445;39;20121;-65
2022/09/09 10:59:16;;;;;;;7.15;2.05;;;;;;;18.41;75.89;100486.00;3586016;39;20343;-65
2022/09/09 11:01:55;;;;;;;7.22;2.17;;;;;;;18.42;75.37;100485.00;3591380;39;20063;-64
2022/09/09 11:04:48;;;;;;;10.63;3.55;;;;;;;18.46;75.90;100488.28;3591026;39;20309;-64
2022/09/09 11:07:39;;;;;;;7.25;2.22;;;;;;;18.42;75.07;100497.75;3588849;39;20052;-64
2022/09/09 11:10:39;;;;;;;7.53;2.40;;;;;;;18.45;75.81;100481.13;3591228;39;20040;-63
2022/09/09 11:13:31;;;;;;;7.95;2.35;;;;;;;18.53;75.99;100482.06;3590280;39;20055;-63
2022/09/09 11:16:31;;;;;;;6.80;2.00;;;;;;;18.51;76.68;100475.06;3579648;39;20121;-63
2022/09/09 11:19:39;;;;;;;8.00;2.30;;;;;;;18.59;76.11;100496.06;3593003;39;20086;-64
2022/09/09 11:22:39;;;;;;;6.72;1.90;;;;;;;18.52;74.73;100482.19;3590415;39;20052;-63
2022/09/09 11:25:10;;;;;;;5.80;2.25;;;;;;;18.49;75.88;100487.94;3589870;39;20056;-64
2022/09/09 11:28:36;;;;;;;4.70;1.70;;;;;;;18.46;75.50;100478.25;3590940;39;20123;-65
2022/09/09 11:31:22;;;;;;;4.78;2.00;;;;;;;18.45;75.55;100475.66;3582544;39;20089;-64
2022/09/09 11:34:27;;;;;;;4.75;2.03;;;;;;;18.46;76.07;100478.25;3590528;39;20052;-65
2022/09/09 11:37:12;;;;;;;7.40;2.10;;;;;;;18.40;75.38;100483.47;3592015;39;20119;-64
2022/09/09 11:40:34;;;;;;;4.03;1.70;;;;;;;18.42;75.67;100475.97;3585211;39;20096;-64
2022/09/09 11:43:05;;;;;;;5.97;2.05;;;;;;;18.40;74.34;100476.16;3593654;39;20047;-64
2022/09/09 11:45:35;;;;;;;7.07;2.05;;;;;;;18.38;75.16;100485.47;3588878;39;20044;-65
2022/09/09 11:48:05;;;;;;;5.95;1.80;;;;;;;18.37;75.80;100489.22;3588468;39;20048;-65
2022/09/09 11:50:37;;;;;;;7.10;1.85;;;;;;;18.39;76.12;100482.56;3590013;39;20084;-64
2022/09/09 11:53:20;;;;;;;4.00;1.73;;;;;;;18.39;76.41;100495.34;3590925;39;20056;-65
2022/09/09 11:55:47;;;;;;;6.10;2.05;;;;;;;18.07;76.12;100450.44;3595364;39;20051;-63
2022/09/09 11:58:12;;;;;;;4.57;2.20;;;;;;;18.18;76.21;100490.19;3593144;39;20095;-65
2022/09/09 12:00:42;;;;;;;7.95;2.55;;;;;;;18.13;77.66;100482.47;3588318;39;20063;-64
2022/09/09 12:03:36;;;;;;;5.85;2.05;;;;;;;18.09;79.58;100475.63;3590427;39;20093;-64
2022/09/09 12:06:33;;;;;;;6.45;2.35;;;;;;;18.21;79.15;100473.56;3588302;39;20051;-65
2022/09/09 12:09:35;;;;;;;4.40;2.25;;;;;;;17.95;77.55;100428.06;3591735;39;20047;-64